createdAt,value
2018-06-11T00:00:15.672Z,4.23
2018-06-11T00:02:46.642Z,4.20
2018-06-11T00:05:17.679Z,5.53
2018-06-11T00:07:49.515Z,4.50
2018-06-11T00:10:20.484Z,4.00
2018-06-11T00:12:52.292Z,4.17
2018-06-11T00:15:23.461Z,4.57
2018-06-11T00:20:30.567Z,4.43
2018-06-11T00:23:01.877Z,4.83
2018-06-11T00:25:33.662Z,4.60
2018-06-11T00:28:04.624Z,4.23
2018-06-11T00:30:35.687Z,4.80
2018-06-11T00:33:06.630Z,4.90
2018-06-11T00:35:38.633Z,4.00
2018-06-11T00:38:09.729Z,4.60
2018-06-11T00:40:41.966Z,4.10
2018-06-11T00:43:13.839Z,4.60
2018-06-11T00:45:45.903Z,4.10
2018-06-11T00:48:17.076Z,4.93
2018-06-11T00:50:48.816Z,4.30
2018-06-11T00:53:19.754Z,4.90
2018-06-11T00:56:02.216Z,4.60
2018-06-11T00:58:33.002Z,4.47
2018-06-11T01:01:03.938Z,4.60
2018-06-11T01:03:34.672Z,4.93
2018-06-11T01:06:08.138Z,4.60
2018-06-11T01:08:39.233Z,4.57
2018-06-11T01:11:10.880Z,5.03
2018-06-11T01:13:41.740Z,4.77
2018-06-11T01:16:12.687Z,5.13
2018-06-11T01:18:43.755Z,4.80
2018-06-11T01:21:16.215Z,4.60
2018-06-11T01:23:47.162Z,4.80
2018-06-11T01:26:18.052Z,4.90
2018-06-11T01:28:49.025Z,4.50
2018-06-11T01:31:20.337Z,4.80
2018-06-11T01:33:51.042Z,4.40
2018-06-11T01:36:22.108Z,4.80
2018-06-11T01:38:53.029Z,4.30
2018-06-11T01:41:24.060Z,4.70
2018-06-11T01:43:54.907Z,4.60
2018-06-11T01:46:26.022Z,5.07
2018-06-11T01:48:57.077Z,4.70
2018-06-11T01:51:27.922Z,4.50
2018-06-11T01:53:58.877Z,4.93
2018-06-11T01:56:29.667Z,4.90
2018-06-11T01:59:00.643Z,5.10
2018-06-11T02:01:31.725Z,5.40
2018-06-11T02:04:02.654Z,4.63
2018-06-11T02:06:34.202Z,4.77
2018-06-11T02:09:05.406Z,4.63
2018-06-11T02:11:36.215Z,4.77
2018-06-11T02:14:07.080Z,5.13
2018-06-11T02:16:38.239Z,4.10
2018-06-11T02:19:09.080Z,4.40
2018-06-11T02:21:39.924Z,5.53
2018-06-11T02:24:10.767Z,4.67
2018-06-11T02:26:41.604Z,5.00
2018-06-11T02:29:12.616Z,5.40
2018-06-11T02:31:44.575Z,4.63
2018-06-11T02:34:15.663Z,4.43
2018-06-11T02:36:49.116Z,5.27
2018-06-11T02:39:20.236Z,4.77
2018-06-11T02:41:51.069Z,4.53
2018-06-11T02:44:22.093Z,4.70
2018-06-11T02:46:53.119Z,4.63
2018-06-11T02:49:24.024Z,4.50
2018-06-11T02:58:50.495Z,5.53
2018-06-11T03:01:21.398Z,4.40
2018-06-11T03:03:54.250Z,4.40
2018-06-11T03:06:25.375Z,4.90
2018-06-11T03:08:56.617Z,5.30
2018-06-11T03:11:28.373Z,4.40
2018-06-11T03:13:59.418Z,5.13
2018-06-11T03:16:30.468Z,4.60
2018-06-11T03:19:01.338Z,4.73
2018-06-11T03:21:32.314Z,4.70
2018-06-11T03:24:04.276Z,5.10
2018-06-11T03:26:35.316Z,4.93
2018-06-11T03:29:06.269Z,4.90
2018-06-11T03:31:37.126Z,5.07
2018-06-11T03:34:09.257Z,5.43
2018-06-11T03:36:40.301Z,5.83
2018-06-11T03:39:11.215Z,5.50
2018-06-11T03:41:42.936Z,5.60
2018-06-11T03:44:14.248Z,5.00
2018-06-11T03:46:45.287Z,5.37
2018-06-11T03:49:17.205Z,5.60
2018-06-11T03:51:48.290Z,5.70
2018-06-11T03:56:55.184Z,6.33
2018-06-11T03:59:26.235Z,5.70
2018-06-11T04:01:59.177Z,5.50
2018-06-11T04:04:30.235Z,6.13
2018-06-11T04:07:02.381Z,5.83
2018-06-11T04:09:33.722Z,6.77
2018-06-11T04:12:05.377Z,6.10
2018-06-11T04:14:36.476Z,5.70
2018-06-11T04:19:43.226Z,6.00
2018-06-11T04:22:14.305Z,5.67
2018-06-11T04:24:45.345Z,5.90
2018-06-11T04:27:16.325Z,5.87
2018-06-11T04:29:47.207Z,5.83
2018-06-11T04:32:19.740Z,6.03
2018-06-11T04:34:50.714Z,5.90
2018-06-11T04:39:58.210Z,5.43
2018-06-11T04:42:29.208Z,5.73
2018-06-11T04:45:00.494Z,5.50
2018-06-11T04:47:31.311Z,5.97
2018-06-11T04:50:03.027Z,5.53
2018-06-11T04:52:33.929Z,5.77
2018-06-11T04:55:05.662Z,5.50
2018-06-11T04:57:36.690Z,5.33
2018-06-11T05:00:08.592Z,5.80
2018-06-11T05:02:39.372Z,5.53
2018-06-11T05:07:48.395Z,5.80
2018-06-11T05:10:19.351Z,5.83
2018-06-11T05:12:53.901Z,5.20
2018-06-11T05:15:24.747Z,5.53
2018-06-11T05:20:33.108Z,6.00
2018-06-11T05:23:04.147Z,5.70
2018-06-11T05:25:36.082Z,5.63
2018-06-11T05:28:07.133Z,5.53
2018-06-11T05:30:37.960Z,5.50
2018-06-11T05:33:11.663Z,6.00
2018-06-11T05:35:45.834Z,5.87
2018-06-11T05:38:16.902Z,5.60
2018-06-11T05:40:48.263Z,6.20
2018-06-11T05:43:19.344Z,5.70
2018-06-11T05:45:50.272Z,5.30
2018-06-11T05:48:21.270Z,6.43
2018-06-11T05:50:54.209Z,6.10
2018-06-11T05:53:25.215Z,5.90
2018-06-11T05:55:56.261Z,6.30
2018-06-11T05:58:27.717Z,5.87
2018-06-11T06:00:58.761Z,6.27
2018-06-11T06:03:29.889Z,6.40
2018-06-11T06:06:00.891Z,6.10
2018-06-11T06:08:31.811Z,6.60
2018-06-11T06:11:03.025Z,6.30
2018-06-11T06:13:34.010Z,7.80
2018-06-11T06:18:41.586Z,8.77
2018-06-11T06:21:12.571Z,8.63
2018-06-11T06:23:44.348Z,7.63
2018-06-11T06:26:15.419Z,8.70
2018-06-11T06:28:49.603Z,7.87
2018-06-11T06:31:20.846Z,9.08
2018-06-11T06:33:51.940Z,8.38
2018-06-11T06:36:22.977Z,8.05
2018-06-11T06:38:54.015Z,8.75
2018-06-11T06:41:25.115Z,7.15
2018-06-11T06:43:58.773Z,7.42
2018-06-11T06:46:30.610Z,6.55
2018-06-11T06:49:02.345Z,6.97
2018-06-11T06:51:33.314Z,6.78
2018-06-11T06:54:04.372Z,8.13
2018-06-11T06:56:36.968Z,6.97
2018-06-11T07:01:44.096Z,7.40
2018-06-11T07:04:14.662Z,6.58
2018-06-11T07:06:47.109Z,6.10
2018-06-11T07:09:17.655Z,7.35
2018-06-11T07:11:48.364Z,6.72
2018-06-11T07:14:18.949Z,6.08
2018-06-11T07:16:52.363Z,6.90
2018-06-11T07:19:22.839Z,6.03
2018-06-11T07:21:53.406Z,5.78
2018-06-11T07:24:23.967Z,5.37
2018-06-11T07:26:55.353Z,5.95
2018-06-11T07:29:25.922Z,5.30
2018-06-11T07:31:57.546Z,5.15
2018-06-11T07:34:28.034Z,6.35
2018-06-11T07:36:59.046Z,6.65
2018-06-11T07:39:29.853Z,6.03
2018-06-11T07:42:01.884Z,5.95
2018-06-11T07:44:33.943Z,6.37
2018-06-11T07:47:05.336Z,6.63
2018-06-11T07:49:36.437Z,6.20
2018-06-11T07:52:07.342Z,5.60
2018-06-11T07:54:38.431Z,6.30
2018-06-11T07:57:12.695Z,6.60
2018-06-11T07:59:43.666Z,6.20
2018-06-11T08:02:14.497Z,5.70
2018-06-11T08:04:45.387Z,6.13
2018-06-11T08:07:16.352Z,6.27
2018-06-11T08:09:47.264Z,6.57
2018-06-11T08:12:19.219Z,6.60
2018-06-11T08:14:50.189Z,6.50
2018-06-11T08:17:21.300Z,6.50
2018-06-11T08:19:52.525Z,7.27
2018-06-11T08:22:23.640Z,7.37
2018-06-11T08:24:54.625Z,7.63
2018-06-11T08:27:27.372Z,7.40
2018-06-11T08:29:58.096Z,7.13
2018-06-11T08:32:29.212Z,7.07
2018-06-11T08:35:00.000Z,7.03
2018-06-11T08:37:31.713Z,9.40
2018-06-11T08:40:02.685Z,7.37
2018-06-11T08:42:33.900Z,7.63
2018-06-11T08:45:05.042Z,7.20
2018-06-11T08:47:36.964Z,7.50
2018-06-11T08:50:08.303Z,7.13
2018-06-11T08:52:39.257Z,7.10
2018-06-11T08:55:10.379Z,7.07
2018-06-11T08:57:43.120Z,7.63
2018-06-11T09:00:14.349Z,7.30
2018-06-11T09:02:47.377Z,7.47
2018-06-11T09:05:18.284Z,7.53
2018-06-11T09:07:49.383Z,7.73
2018-06-11T09:10:20.447Z,6.93
2018-06-11T09:12:53.080Z,7.43
2018-06-11T09:15:23.997Z,7.60
2018-06-11T09:17:55.290Z,7.70
2018-06-11T09:20:26.414Z,7.43
2018-06-11T09:22:59.966Z,6.80
2018-06-11T09:25:30.927Z,7.40
2018-06-11T09:28:07.702Z,7.63
2018-06-11T09:30:38.650Z,6.97
2018-06-11T09:33:09.592Z,7.17
2018-06-11T09:35:40.506Z,7.30
2018-06-11T09:38:11.441Z,7.40
2018-06-11T09:40:42.548Z,9.40
2018-06-11T09:45:49.750Z,7.20
2018-06-11T09:48:20.745Z,6.90
2018-06-11T09:50:52.646Z,8.57
2018-06-11T09:53:23.651Z,7.23
2018-06-11T09:55:55.597Z,7.33
2018-06-11T09:58:26.527Z,7.37
2018-06-11T10:00:58.481Z,7.13
2018-06-11T10:03:29.443Z,6.60
2018-06-11T10:06:07.346Z,6.60
2018-06-11T10:08:38.110Z,6.23
2018-06-11T10:11:09.910Z,6.50
2018-06-11T10:13:41.041Z,6.00
2018-06-11T10:18:47.894Z,6.30
2018-06-11T10:21:18.519Z,6.63
2018-06-11T10:23:52.437Z,6.93
2018-06-11T10:26:23.160Z,6.63
2018-06-11T10:28:53.860Z,6.77
2018-06-11T10:31:24.366Z,6.00
2018-06-11T10:33:56.309Z,6.30
2018-06-11T10:36:27.380Z,6.30
2018-06-11T10:38:58.520Z,6.07
2018-06-11T10:41:29.578Z,6.70
2018-06-11T10:44:00.636Z,7.50
2018-06-11T10:46:31.716Z,7.43
2018-06-11T10:49:10.034Z,7.40
2018-06-11T10:51:41.013Z,8.40
2018-06-11T10:54:13.758Z,8.00
2018-06-11T10:56:44.775Z,8.10
2018-06-11T10:59:21.292Z,8.50
2018-06-11T11:01:52.592Z,7.87
2018-06-11T11:04:25.641Z,7.80
2018-06-11T11:06:56.624Z,7.73
2018-06-11T11:09:28.612Z,8.57
2018-06-11T11:11:59.559Z,7.37
2018-06-11T11:14:32.202Z,7.70
2018-06-11T11:17:03.199Z,7.70
2018-06-11T11:19:34.271Z,10.00
2018-06-11T11:22:05.230Z,7.17
2018-06-11T11:24:36.388Z,9.20
2018-06-11T11:27:07.553Z,7.43
2018-06-11T11:29:39.527Z,7.80
2018-06-11T11:32:10.538Z,7.80
2018-06-11T11:34:44.039Z,11.43
2018-06-11T11:37:14.923Z,9.20
2018-06-11T11:39:48.522Z,7.50
2018-06-11T11:42:19.508Z,7.97
2018-06-11T11:44:53.003Z,7.40
2018-06-11T11:47:23.965Z,7.47
2018-06-11T11:52:31.321Z,7.83
2018-06-11T11:55:02.528Z,7.30
2018-06-11T11:57:34.285Z,6.63
2018-06-11T12:00:05.717Z,7.03
2018-06-11T12:02:38.720Z,6.73
2018-06-11T12:05:10.436Z,8.10
2018-06-11T12:07:41.694Z,6.97
2018-06-11T12:10:13.456Z,7.20
2018-06-11T12:12:44.599Z,6.67
2018-06-11T12:15:15.696Z,7.13
2018-06-11T12:17:46.720Z,7.47
2018-06-11T12:20:17.546Z,6.93
2018-06-11T12:22:49.512Z,8.00
2018-06-11T12:25:20.290Z,7.27
2018-06-11T12:27:51.273Z,7.50
2018-06-11T12:30:22.164Z,7.77
2018-06-11T12:38:06.590Z,8.30
2018-06-11T12:40:37.304Z,8.93
2018-06-11T12:43:09.633Z,8.50
2018-06-11T12:45:40.722Z,8.20
2018-06-11T12:48:11.801Z,8.87
2018-06-11T12:50:42.685Z,7.67
2018-06-11T12:53:13.696Z,7.57
2018-06-11T12:55:45.579Z,8.17
2018-06-11T12:58:16.765Z,7.50
2018-06-11T13:00:50.068Z,7.13
2018-06-11T13:03:21.214Z,7.93
2018-06-11T13:05:51.995Z,7.20
2018-06-11T13:08:23.809Z,7.60
2018-06-11T13:10:55.077Z,7.07
2018-06-11T13:13:26.169Z,7.17
2018-06-11T13:15:57.114Z,7.40
2018-06-11T13:18:28.083Z,7.37
2018-06-11T13:20:59.246Z,7.07
2018-06-11T13:23:32.651Z,7.50
2018-06-11T13:26:03.901Z,7.47
2018-06-11T13:28:34.988Z,6.90
2018-06-11T13:31:06.111Z,6.70
2018-06-11T13:33:37.337Z,7.53
2018-06-11T13:36:08.286Z,6.80
2018-06-11T13:41:16.252Z,7.50
2018-06-11T13:43:47.538Z,7.40
2018-06-11T13:46:18.576Z,7.37
2018-06-11T13:48:49.791Z,7.47
2018-06-11T13:51:20.857Z,6.50
2018-06-11T13:53:51.683Z,6.23
2018-06-11T13:56:24.385Z,6.53
2018-06-11T13:58:55.505Z,6.30
2018-06-11T14:01:26.605Z,7.33
2018-06-11T14:03:57.646Z,6.47
2018-06-11T14:06:31.064Z,6.90
2018-06-11T14:09:02.078Z,6.60
2018-06-11T14:11:34.127Z,6.90
2018-06-11T14:14:05.205Z,6.40
2018-06-11T14:16:39.065Z,7.30
2018-06-11T14:19:10.069Z,6.90
2018-06-11T14:21:42.675Z,6.73
2018-06-11T14:24:13.765Z,6.47
2018-06-11T14:26:44.677Z,6.30
2018-06-11T14:29:16.530Z,6.90
2018-06-11T14:31:50.076Z,6.60
2018-06-11T14:34:21.118Z,6.80
2018-06-11T14:39:28.742Z,6.37
2018-06-11T14:41:59.689Z,7.20
2018-06-11T14:44:30.709Z,6.70
2018-06-11T14:47:01.670Z,7.30
2018-06-11T14:49:32.702Z,6.60
2018-06-11T14:52:03.905Z,6.70
2018-06-11T14:54:36.489Z,6.33
2018-06-11T14:57:07.555Z,7.07
2018-06-11T14:59:39.343Z,6.67
2018-06-11T15:02:12.935Z,6.27
2018-06-11T15:04:44.010Z,7.30
2018-06-11T15:07:14.811Z,6.77
2018-06-11T15:09:45.843Z,6.70
2018-06-11T15:12:16.559Z,6.13
2018-06-11T15:14:47.728Z,7.00
2018-06-11T15:17:19.450Z,6.80
2018-06-11T15:19:51.153Z,6.70
2018-06-11T15:22:22.376Z,6.20
2018-06-11T15:24:55.802Z,6.73
2018-06-11T15:27:26.942Z,6.63
2018-06-11T15:29:58.052Z,6.53
2018-06-11T15:32:28.885Z,6.10
2018-06-11T15:35:00.817Z,6.30
2018-06-11T15:37:32.793Z,6.47
2018-06-11T15:40:03.848Z,7.27
2018-06-11T15:42:35.440Z,6.87
2018-06-11T15:45:07.470Z,6.43
2018-06-11T15:47:38.286Z,6.87
2018-06-11T15:50:09.351Z,6.30
2018-06-11T15:52:40.505Z,6.00
2018-06-11T15:55:12.410Z,6.37
2018-06-11T15:57:43.375Z,7.07
2018-06-11T16:02:50.610Z,5.93
2018-06-11T16:05:21.797Z,6.53
2018-06-11T16:07:54.051Z,6.53
2018-06-11T16:10:25.266Z,5.80
2018-06-11T16:12:58.017Z,6.00
2018-06-11T16:15:29.207Z,7.13
2018-06-11T16:18:00.224Z,6.90
2018-06-11T16:20:31.383Z,6.47
2018-06-11T16:23:02.532Z,6.00
2018-06-11T16:25:33.760Z,5.83
2018-06-11T16:28:07.752Z,5.77
2018-06-11T16:30:38.665Z,5.60
2018-06-11T16:33:09.616Z,6.00
2018-06-11T16:35:40.676Z,6.57
2018-06-11T16:38:12.700Z,6.63
2018-06-11T16:40:43.763Z,6.97
2018-06-11T16:43:16.008Z,6.53
2018-06-11T16:45:47.256Z,7.80
2018-06-11T16:48:19.844Z,7.20
2018-06-11T16:50:50.835Z,5.83
2018-06-11T16:53:22.856Z,6.10
2018-06-11T16:55:53.748Z,5.83
2018-06-11T16:58:24.964Z,6.00
2018-06-11T17:00:55.965Z,6.27
2018-06-11T17:03:29.326Z,6.47
2018-06-11T17:06:00.316Z,6.00
2018-06-11T17:08:32.292Z,6.47
2018-06-11T17:11:03.525Z,6.80
2018-06-11T17:13:34.641Z,6.23
2018-06-11T17:16:05.518Z,6.90
2018-06-11T17:18:39.327Z,6.80
2018-06-11T17:21:10.203Z,6.60
2018-06-11T17:23:41.145Z,6.17
2018-06-11T17:26:11.926Z,6.40
2018-06-11T17:28:43.772Z,7.13
2018-06-11T17:31:14.623Z,6.30
2018-06-11T17:33:45.801Z,7.20
2018-06-11T17:36:16.991Z,7.40
2018-06-11T17:38:48.970Z,6.73
2018-06-11T17:41:20.234Z,6.73
2018-06-11T17:43:51.330Z,6.80
2018-06-11T17:46:22.462Z,6.93
2018-06-11T17:48:53.406Z,8.40
2018-06-11T17:51:24.489Z,8.07
2018-06-11T17:53:57.069Z,7.43
2018-06-11T17:56:28.353Z,8.00
2018-06-11T17:58:59.581Z,9.40
2018-06-11T18:01:30.891Z,9.53
2018-06-11T18:04:02.016Z,9.63
2018-06-11T18:06:33.000Z,7.93
2018-06-11T18:09:04.900Z,7.30
2018-06-11T18:11:36.074Z,8.00
2018-06-11T18:14:07.189Z,6.97
2018-06-11T18:16:37.969Z,8.53
2018-06-11T18:19:11.529Z,7.70
2018-06-11T18:21:42.533Z,7.27
2018-06-11T18:24:13.497Z,7.80
2018-06-11T18:26:44.467Z,9.03
2018-06-11T18:29:17.553Z,8.40
2018-06-11T18:31:48.686Z,8.13
2018-06-11T18:34:19.718Z,7.93
2018-06-11T18:36:50.799Z,7.63
2018-06-11T18:39:23.488Z,7.10
2018-06-11T18:41:54.516Z,8.40
2018-06-11T18:44:26.484Z,7.97
2018-06-11T18:46:57.567Z,7.47
2018-06-11T18:49:30.427Z,7.43
2018-06-11T18:52:01.476Z,7.87
2018-06-11T18:54:32.602Z,7.10
2018-06-11T18:57:04.454Z,7.60
2018-06-11T18:59:35.552Z,7.80
2018-06-11T19:02:06.582Z,8.17
2018-06-11T19:04:38.486Z,7.07
2018-06-11T19:07:14.054Z,8.07
2018-06-11T19:09:47.573Z,8.27
2018-06-11T19:12:18.857Z,8.60
2018-06-11T19:14:51.552Z,8.30
2018-06-11T19:17:22.386Z,8.60
2018-06-11T19:19:55.382Z,8.63
2018-06-11T19:22:26.428Z,8.60
2018-06-11T19:24:59.881Z,8.90
2018-06-11T19:27:31.020Z,8.30
2018-06-11T19:30:01.961Z,8.93
2018-06-11T19:32:33.040Z,8.40
2018-06-11T19:35:04.335Z,8.40
2018-06-11T19:37:35.435Z,8.67
2018-06-11T19:40:09.094Z,8.83
2018-06-11T19:42:40.109Z,8.47
2018-06-11T19:45:11.276Z,8.57
2018-06-11T19:47:42.842Z,7.87
2018-06-11T19:50:13.946Z,7.60
2018-06-11T19:52:44.811Z,8.07
2018-06-11T19:55:15.984Z,8.53
2018-06-11T19:57:47.165Z,8.50
2018-06-11T20:00:18.363Z,8.47
2018-06-11T20:02:49.587Z,7.77
2018-06-11T20:05:21.331Z,9.43
2018-06-11T20:07:52.426Z,8.40
2018-06-11T20:10:23.758Z,8.43
2018-06-11T20:12:54.886Z,7.80
2018-06-11T20:15:26.041Z,8.20
2018-06-11T20:17:57.113Z,8.30
2018-06-11T20:20:29.140Z,7.27
2018-06-11T20:23:00.197Z,7.93
2018-06-11T20:25:31.213Z,9.00
2018-06-11T20:28:02.351Z,8.10
2018-06-11T20:30:33.634Z,9.10
2018-06-11T20:33:05.558Z,9.50
2018-06-11T20:35:37.418Z,8.83
2018-06-11T20:38:08.571Z,9.90
2018-06-11T20:40:45.827Z,8.73
2018-06-11T20:43:16.952Z,8.43
2018-06-11T20:45:54.218Z,9.20
2018-06-11T20:48:25.161Z,9.80
2018-06-11T20:50:56.284Z,10.40
2018-06-11T20:53:27.630Z,8.60
2018-06-11T20:55:58.736Z,9.63
2018-06-11T20:58:29.818Z,9.53
2018-06-11T21:03:37.651Z,8.67
2018-06-11T21:06:10.487Z,8.63
2018-06-11T21:08:42.442Z,7.47
2018-06-11T21:11:13.317Z,7.20
2018-06-11T21:16:21.828Z,6.87
2018-06-11T21:18:52.846Z,6.57
2018-06-11T21:21:23.848Z,7.20
2018-06-11T21:23:54.843Z,6.83
2018-06-11T21:26:26.131Z,6.80
2018-06-11T21:28:57.272Z,7.83
2018-06-11T21:31:28.224Z,7.43
2018-06-11T21:33:59.412Z,7.40
2018-06-11T21:36:30.282Z,7.50
2018-06-11T21:39:02.185Z,6.43
2018-06-11T21:41:33.196Z,8.07
2018-06-11T21:44:07.654Z,7.60
2018-06-11T21:46:39.054Z,6.90
2018-06-11T21:49:10.027Z,7.13
2018-06-11T21:51:40.961Z,7.73
2018-06-11T21:54:12.989Z,7.10
2018-06-11T21:56:43.984Z,6.50
2018-06-11T21:59:15.925Z,6.47
2018-06-11T22:01:46.963Z,6.83
2018-06-11T22:04:20.889Z,6.80
2018-06-11T22:06:51.860Z,6.20
2018-06-11T22:09:24.829Z,7.07
2018-06-11T22:11:55.978Z,6.20
2018-06-11T22:17:03.678Z,5.97
2018-06-11T22:19:34.794Z,7.17
2018-06-11T22:22:08.573Z,6.13
2018-06-11T22:24:39.676Z,5.90
2018-06-11T22:27:10.777Z,6.10
2018-06-11T22:29:41.630Z,5.73
2018-06-11T22:32:12.615Z,6.07
2018-06-11T22:34:43.546Z,7.43
2018-06-11T22:37:14.723Z,5.43
2018-06-11T22:39:45.618Z,5.50
2018-06-11T22:42:16.471Z,6.20
2018-06-11T22:44:47.468Z,5.57
2018-06-11T22:47:18.598Z,6.10
2018-06-11T22:49:49.717Z,5.77
2018-06-11T22:52:20.844Z,5.80
2018-06-11T22:54:51.921Z,5.73
2018-06-11T22:57:23.832Z,5.80
2018-06-11T22:59:54.855Z,4.67
2018-06-11T23:02:28.272Z,5.20
2018-06-11T23:04:59.419Z,4.90
2018-06-11T23:07:30.579Z,4.80
2018-06-11T23:10:01.695Z,5.63
2018-06-11T23:12:33.459Z,4.97
2018-06-11T23:15:04.276Z,5.20
2018-06-11T23:17:35.305Z,5.03
2018-06-11T23:20:06.069Z,5.10
2018-06-11T23:22:37.719Z,5.37
2018-06-11T23:25:08.556Z,5.30
2018-06-11T23:27:41.919Z,4.83
2018-06-11T23:30:12.970Z,6.40
2018-06-11T23:32:45.714Z,4.33
2018-06-11T23:35:16.670Z,5.03
2018-06-11T23:37:48.415Z,4.60
2018-06-11T23:40:19.280Z,5.00
2018-06-11T23:42:50.303Z,5.00
2018-06-11T23:45:21.280Z,5.53
2018-06-11T23:47:52.301Z,4.80
2018-06-11T23:50:23.088Z,5.03
2018-06-11T23:52:55.068Z,5.33
2018-06-11T23:55:26.021Z,4.50
2018-06-11T23:58:01.868Z,5.10
